sensor_id;sensor_type;location;lat;lon;timestamp;P1;durP1;ratioP1;P2;durP2;ratioP2
15990;SDS011;8100;50.994;4.538;2022-10-17T00:00:46;5.88;;;2.95;;
15990;SDS011;8100;50.994;4.538;2022-10-17T00:03:34;3.50;;;2.90;;
15990;SDS011;8100;50.994;4.538;2022-10-17T00:06:22;6.05;;;3.08;;
15990;SDS011;8100;50.994;4.538;2022-10-17T00:09:09;4.72;;;3.00;;
15990;SDS011;8100;50.994;4.538;2022-10-17T00:11:56;6.93;;;3.30;;
15990;SDS011;8100;50.994;4.538;2022-10-17T00:14:45;4.57;;;3.20;;
15990;SDS011;8100;50.994;4.538;2022-10-17T00:17:32;5.47;;;3.20;;
15990;SDS011;8100;50.994;4.538;2022-10-17T00:20:20;6.22;;;3.47;;
15990;SDS011;8100;50.994;4.538;2022-10-17T00:23:07;4.20;;;3.10;;
15990;SDS011;8100;50.994;4.538;2022-10-17T00:25:58;4.80;;;3.50;;
15990;SDS011;8100;50.994;4.538;2022-10-17T00:28:45;6.00;;;3.70;;
15990;SDS011;8100;50.994;4.538;2022-10-17T00:31:34;5.68;;;3.38;;
15990;SDS011;8100;50.994;4.538;2022-10-17T00:34:21;5.95;;;3.47;;
15990;SDS011;8100;50.994;4.538;2022-10-17T00:37:09;5.70;;;3.90;;
15990;SDS011;8100;50.994;4.538;2022-10-17T00:39:56;5.25;;;3.63;;
15990;SDS011;8100;50.994;4.538;2022-10-17T00:42:43;8.32;;;3.45;;
15990;SDS011;8100;50.994;4.538;2022-10-17T00:45:30;5.60;;;3.38;;
15990;SDS011;8100;50.994;4.538;2022-10-17T00:48:19;6.63;;;3.20;;
15990;SDS011;8100;50.994;4.538;2022-10-17T00:51:08;4.30;;;2.90;;
15990;SDS011;8100;50.994;4.538;2022-10-17T00:53:56;4.43;;;3.20;;
15990;SDS011;8100;50.994;4.538;2022-10-17T00:56:43;4.95;;;3.42;;
15990;SDS011;8100;50.994;4.538;2022-10-17T00:59:33;5.70;;;3.10;;
15990;SDS011;8100;50.994;4.538;2022-10-17T01:02:23;5.15;;;3.60;;
15990;SDS011;8100;50.994;4.538;2022-10-17T01:05:11;4.35;;;3.30;;
15990;SDS011;8100;50.994;4.538;2022-10-17T01:07:59;4.50;;;3.50;;
15990;SDS011;8100;50.994;4.538;2022-10-17T01:10:51;5.90;;;2.95;;
15990;SDS011;8100;50.994;4.538;2022-10-17T01:13:48;5.22;;;3.40;;
15990;SDS011;8100;50.994;4.538;2022-10-17T01:16:41;5.53;;;3.22;;
15990;SDS011;8100;50.994;4.538;2022-10-17T01:19:34;6.30;;;2.78;;
15990;SDS011;8100;50.994;4.538;2022-10-17T01:22:40;4.18;;;3.20;;
15990;SDS011;8100;50.994;4.538;2022-10-17T01:25:34;5.75;;;3.30;;
15990;SDS011;8100;50.994;4.538;2022-10-17T01:31:54;4.03;;;3.03;;
15990;SDS011;8100;50.994;4.538;2022-10-17T01:34:46;3.83;;;3.10;;
15990;SDS011;8100;50.994;4.538;2022-10-17T01:37:39;4.63;;;3.03;;
15990;SDS011;8100;50.994;4.538;2022-10-17T01:40:33;4.18;;;2.92;;
15990;SDS011;8100;50.994;4.538;2022-10-17T01:43:23;3.72;;;2.88;;
15990;SDS011;8100;50.994;4.538;2022-10-17T01:46:15;4.05;;;2.60;;
15990;SDS011;8100;50.994;4.538;2022-10-17T01:49:08;4.28;;;2.95;;
15990;SDS011;8100;50.994;4.538;2022-10-17T01:51:57;3.50;;;2.85;;
15990;SDS011;8100;50.994;4.538;2022-10-17T01:54:49;5.63;;;3.20;;
15990;SDS011;8100;50.994;4.538;2022-10-17T01:57:39;4.03;;;3.00;;
15990;SDS011;8100;50.994;4.538;2022-10-17T02:00:29;5.43;;;3.13;;
15990;SDS011;8100;50.994;4.538;2022-10-17T02:03:18;3.78;;;2.78;;
15990;SDS011;8100;50.994;4.538;2022-10-17T02:06:08;3.25;;;2.70;;
15990;SDS011;8100;50.994;4.538;2022-10-17T02:08:55;4.13;;;3.15;;
15990;SDS011;8100;50.994;4.538;2022-10-17T02:11:42;4.63;;;2.80;;
15990;SDS011;8100;50.994;4.538;2022-10-17T02:14:38;3.45;;;2.67;;
15990;SDS011;8100;50.994;4.538;2022-10-17T02:17:38;4.40;;;2.60;;
15990;SDS011;8100;50.994;4.538;2022-10-17T02:20:34;3.22;;;2.83;;
15990;SDS011;8100;50.994;4.538;2022-10-17T02:23:29;7.95;;;3.00;;
15990;SDS011;8100;50.994;4.538;2022-10-17T02:26:24;6.43;;;3.20;;
15990;SDS011;8100;50.994;4.538;2022-10-17T02:29:15;5.38;;;3.22;;
15990;SDS011;8100;50.994;4.538;2022-10-17T02:32:05;5.65;;;2.90;;
15990;SDS011;8100;50.994;4.538;2022-10-17T02:34:57;4.95;;;2.85;;
15990;SDS011;8100;50.994;4.538;2022-10-17T02:37:47;4.68;;;2.63;;
15990;SDS011;8100;50.994;4.538;2022-10-17T02:40:37;7.53;;;2.83;;
15990;SDS011;8100;50.994;4.538;2022-10-17T02:43:26;5.10;;;3.10;;
15990;SDS011;8100;50.994;4.538;2022-10-17T02:46:14;5.32;;;3.03;;
15990;SDS011;8100;50.994;4.538;2022-10-17T02:49:06;5.85;;;2.85;;
15990;SDS011;8100;50.994;4.538;2022-10-17T02:51:59;6.80;;;3.40;;
15990;SDS011;8100;50.994;4.538;2022-10-17T02:54:50;4.63;;;3.10;;
15990;SDS011;8100;50.994;4.538;2022-10-17T02:57:43;5.28;;;2.95;;
15990;SDS011;8100;50.994;4.538;2022-10-17T03:00:33;5.68;;;2.92;;
15990;SDS011;8100;50.994;4.538;2022-10-17T03:03:21;5.30;;;3.17;;
15990;SDS011;8100;50.994;4.538;2022-10-17T03:06:09;5.65;;;3.30;;
15990;SDS011;8100;50.994;4.538;2022-10-17T03:08:57;7.90;;;2.88;;
15990;SDS011;8100;50.994;4.538;2022-10-17T03:11:44;3.28;;;2.80;;
15990;SDS011;8100;50.994;4.538;2022-10-17T03:14:32;5.30;;;3.10;;
15990;SDS011;8100;50.994;4.538;2022-10-17T03:17:19;4.00;;;2.75;;
15990;SDS011;8100;50.994;4.538;2022-10-17T03:20:07;6.85;;;3.05;;
15990;SDS011;8100;50.994;4.538;2022-10-17T03:22:54;4.20;;;3.10;;
15990;SDS011;8100;50.994;4.538;2022-10-17T03:25:41;5.53;;;3.28;;
15990;SDS011;8100;50.994;4.538;2022-10-17T03:28:28;5.45;;;3.08;;
15990;SDS011;8100;50.994;4.538;2022-10-17T03:31:17;5.95;;;2.92;;
15990;SDS011;8100;50.994;4.538;2022-10-17T03:34:04;5.78;;;3.30;;
15990;SDS011;8100;50.994;4.538;2022-10-17T03:36:51;4.72;;;3.05;;
15990;SDS011;8100;50.994;4.538;2022-10-17T03:39:38;5.30;;;3.00;;
15990;SDS011;8100;50.994;4.538;2022-10-17T03:42:25;6.47;;;3.25;;
15990;SDS011;8100;50.994;4.538;2022-10-17T03:45:13;5.18;;;3.30;;
15990;SDS011;8100;50.994;4.538;2022-10-17T03:48:01;11.10;;;3.40;;
15990;SDS011;8100;50.994;4.538;2022-10-17T03:50:49;6.97;;;3.42;;
15990;SDS011;8100;50.994;4.538;2022-10-17T03:53:36;3.78;;;2.70;;
15990;SDS011;8100;50.994;4.538;2022-10-17T03:56:24;5.78;;;3.58;;
15990;SDS011;8100;50.994;4.538;2022-10-17T03:59:12;6.07;;;3.42;;
15990;SDS011;8100;50.994;4.538;2022-10-17T04:02:00;5.20;;;2.90;;
15990;SDS011;8100;50.994;4.538;2022-10-17T04:04:48;6.63;;;3.20;;
15990;SDS011;8100;50.994;4.538;2022-10-17T04:07:35;9.18;;;3.05;;
15990;SDS011;8100;50.994;4.538;2022-10-17T04:10:23;5.97;;;3.30;;
15990;SDS011;8100;50.994;4.538;2022-10-17T04:13:10;4.63;;;3.38;;
15990;SDS011;8100;50.994;4.538;2022-10-17T04:15:57;6.85;;;3.55;;
15990;SDS011;8100;50.994;4.538;2022-10-17T04:18:46;4.95;;;3.42;;
15990;SDS011;8100;50.994;4.538;2022-10-17T04:21:39;7.60;;;3.15;;
15990;SDS011;8100;50.994;4.538;2022-10-17T04:24:26;6.60;;;3.25;;
15990;SDS011;8100;50.994;4.538;2022-10-17T04:27:13;5.25;;;3.38;;
15990;SDS011;8100;50.994;4.538;2022-10-17T04:30:00;5.70;;;3.42;;
15990;SDS011;8100;50.994;4.538;2022-10-17T04:32:47;3.55;;;3.20;;
15990;SDS011;8100;50.994;4.538;2022-10-17T04:35:35;4.55;;;3.45;;
15990;SDS011;8100;50.994;4.538;2022-10-17T04:38:23;6.55;;;3.50;;
15990;SDS011;8100;50.994;4.538;2022-10-17T04:41:11;5.45;;;3.30;;
15990;SDS011;8100;50.994;4.538;2022-10-17T04:43:59;5.40;;;3.47;;
15990;SDS011;8100;50.994;4.538;2022-10-17T04:46:46;6.78;;;3.67;;
15990;SDS011;8100;50.994;4.538;2022-10-17T04:49:34;7.18;;;3.60;;
15990;SDS011;8100;50.994;4.538;2022-10-17T04:52:21;7.55;;;3.47;;
15990;SDS011;8100;50.994;4.538;2022-10-17T04:55:10;8.55;;;3.58;;
15990;SDS011;8100;50.994;4.538;2022-10-17T04:57:57;6.35;;;3.47;;
15990;SDS011;8100;50.994;4.538;2022-10-17T05:00:45;5.80;;;3.03;;
15990;SDS011;8100;50.994;4.538;2022-10-17T05:03:32;7.90;;;3.70;;
15990;SDS011;8100;50.994;4.538;2022-10-17T05:06:20;10.48;;;3.92;;
15990;SDS011;8100;50.994;4.538;2022-10-17T05:09:08;5.18;;;3.78;;
15990;SDS011;8100;50.994;4.538;2022-10-17T05:11:57;8.20;;;3.67;;
15990;SDS011;8100;50.994;4.538;2022-10-17T05:14:44;6.85;;;3.50;;
15990;SDS011;8100;50.994;4.538;2022-10-17T05:17:31;4.95;;;3.45;;
15990;SDS011;8100;50.994;4.538;2022-10-17T05:20:18;9.48;;;3.65;;
15990;SDS011;8100;50.994;4.538;2022-10-17T05:23:06;6.25;;;3.80;;
15990;SDS011;8100;50.994;4.538;2022-10-17T05:25:53;4.88;;;3.10;;
15990;SDS011;8100;50.994;4.538;2022-10-17T05:28:42;5.05;;;3.35;;
15990;SDS011;8100;50.994;4.538;2022-10-17T05:31:29;5.00;;;3.30;;
15990;SDS011;8100;50.994;4.538;2022-10-17T05:34:17;7.50;;;3.40;;
15990;SDS011;8100;50.994;4.538;2022-10-17T05:37:04;6.72;;;3.20;;
15990;SDS011;8100;50.994;4.538;2022-10-17T05:39:51;5.10;;;3.38;;
15990;SDS011;8100;50.994;4.538;2022-10-17T05:42:38;5.35;;;3.17;;
15990;SDS011;8100;50.994;4.538;2022-10-17T05:45:27;6.45;;;3.15;;
15990;SDS011;8100;50.994;4.538;2022-10-17T05:48:14;4.55;;;3.22;;
15990;SDS011;8100;50.994;4.538;2022-10-17T05:51:03;5.80;;;3.55;;
15990;SDS011;8100;50.994;4.538;2022-10-17T05:53:53;4.00;;;3.13;;
15990;SDS011;8100;50.994;4.538;2022-10-17T05:56:40;6.53;;;3.63;;
15990;SDS011;8100;50.994;4.538;2022-10-17T05:59:27;5.07;;;3.60;;
15990;SDS011;8100;50.994;4.538;2022-10-17T06:02:16;5.82;;;3.50;;
15990;SDS011;8100;50.994;4.538;2022-10-17T06:05:03;5.85;;;3.25;;
15990;SDS011;8100;50.994;4.538;2022-10-17T06:07:51;6.15;;;3.63;;
15990;SDS011;8100;50.994;4.538;2022-10-17T06:10:38;4.70;;;3.28;;
15990;SDS011;8100;50.994;4.538;2022-10-17T06:13:25;5.05;;;3.50;;
15990;SDS011;8100;50.994;4.538;2022-10-17T06:16:12;7.20;;;3.25;;
15990;SDS011;8100;50.994;4.538;2022-10-17T06:19:01;6.10;;;3.25;;
15990;SDS011;8100;50.994;4.538;2022-10-17T06:21:48;5.10;;;3.17;;
15990;SDS011;8100;50.994;4.538;2022-10-17T06:24:35;11.38;;;3.20;;
15990;SDS011;8100;50.994;4.538;2022-10-17T06:27:22;4.85;;;2.85;;
15990;SDS011;8100;50.994;4.538;2022-10-17T06:30:09;6.53;;;3.42;;
15990;SDS011;8100;50.994;4.538;2022-10-17T06:32:57;6.13;;;3.20;;
15990;SDS011;8100;50.994;4.538;2022-10-17T06:35:50;6.78;;;3.35;;
15990;SDS011;8100;50.994;4.538;2022-10-17T06:38:38;6.47;;;3.15;;
15990;SDS011;8100;50.994;4.538;2022-10-17T06:41:26;7.05;;;2.97;;
15990;SDS011;8100;50.994;4.538;2022-10-17T06:44:13;7.07;;;3.60;;
15990;SDS011;8100;50.994;4.538;2022-10-17T06:47:00;5.35;;;3.10;;
15990;SDS011;8100;50.994;4.538;2022-10-17T06:49:47;4.97;;;3.28;;
15990;SDS011;8100;50.994;4.538;2022-10-17T06:52:36;4.93;;;2.85;;
15990;SDS011;8100;50.994;4.538;2022-10-17T06:55:23;3.63;;;2.92;;
15990;SDS011;8100;50.994;4.538;2022-10-17T06:58:11;5.72;;;3.45;;
15990;SDS011;8100;50.994;4.538;2022-10-17T07:00:58;5.13;;;3.50;;
15990;SDS011;8100;50.994;4.538;2022-10-17T07:03:46;5.68;;;3.22;;
15990;SDS011;8100;50.994;4.538;2022-10-17T07:06:34;6.03;;;3.35;;
15990;SDS011;8100;50.994;4.538;2022-10-17T07:09:22;5.95;;;2.80;;
15990;SDS011;8100;50.994;4.538;2022-10-17T07:12:11;4.57;;;2.85;;
15990;SDS011;8100;50.994;4.538;2022-10-17T07:14:58;6.85;;;3.35;;
15990;SDS011;8100;50.994;4.538;2022-10-17T07:17:47;5.90;;;3.30;;
15990;SDS011;8100;50.994;4.538;2022-10-17T07:20:34;5.30;;;3.15;;
15990;SDS011;8100;50.994;4.538;2022-10-17T07:23:22;4.60;;;3.03;;
15990;SDS011;8100;50.994;4.538;2022-10-17T07:26:11;5.10;;;2.90;;
15990;SDS011;8100;50.994;4.538;2022-10-17T07:29:00;5.75;;;3.30;;
15990;SDS011;8100;50.994;4.538;2022-10-17T07:31:47;6.13;;;2.92;;
15990;SDS011;8100;50.994;4.538;2022-10-17T07:34:36;7.40;;;3.08;;
15990;SDS011;8100;50.994;4.538;2022-10-17T07:37:23;7.53;;;3.05;;
15990;SDS011;8100;50.994;4.538;2022-10-17T07:40:10;4.25;;;2.80;;
15990;SDS011;8100;50.994;4.538;2022-10-17T07:42:59;5.35;;;2.20;;
15990;SDS011;8100;50.994;4.538;2022-10-17T07:45:46;3.55;;;2.33;;
15990;SDS011;8100;50.994;4.538;2022-10-17T07:48:33;5.22;;;2.20;;
15990;SDS011;8100;50.994;4.538;2022-10-17T07:51:21;3.88;;;2.50;;
15990;SDS011;8100;50.994;4.538;2022-10-17T07:54:08;6.20;;;2.63;;
15990;SDS011;8100;50.994;4.538;2022-10-17T07:56:55;5.50;;;3.00;;
15990;SDS011;8100;50.994;4.538;2022-10-17T07:59:44;3.63;;;1.80;;
15990;SDS011;8100;50.994;4.538;2022-10-17T08:02:32;2.38;;;2.17;;
15990;SDS011;8100;50.994;4.538;2022-10-17T08:05:19;5.10;;;2.30;;
15990;SDS011;8100;50.994;4.538;2022-10-17T08:08:06;3.45;;;1.80;;
15990;SDS011;8100;50.994;4.538;2022-10-17T08:10:54;5.95;;;2.20;;
15990;SDS011;8100;50.994;4.538;2022-10-17T08:13:41;4.93;;;2.00;;
15990;SDS011;8100;50.994;4.538;2022-10-17T08:16:30;7.07;;;2.33;;
15990;SDS011;8100;50.994;4.538;2022-10-17T08:19:17;5.90;;;2.47;;
15990;SDS011;8100;50.994;4.538;2022-10-17T08:22:04;4.30;;;2.55;;
15990;SDS011;8100;50.994;4.538;2022-10-17T08:24:52;3.40;;;2.33;;
15990;SDS011;8100;50.994;4.538;2022-10-17T08:27:40;4.78;;;2.20;;
15990;SDS011;8100;50.994;4.538;2022-10-17T08:30:27;4.03;;;1.80;;
15990;SDS011;8100;50.994;4.538;2022-10-17T08:33:16;6.53;;;2.33;;
15990;SDS011;8100;50.994;4.538;2022-10-17T08:36:04;4.32;;;2.22;;
15990;SDS011;8100;50.994;4.538;2022-10-17T08:38:52;5.30;;;2.15;;
15990;SDS011;8100;50.994;4.538;2022-10-17T08:41:42;8.90;;;3.28;;
15990;SDS011;8100;50.994;4.538;2022-10-17T08:44:38;4.82;;;3.83;;
15990;SDS011;8100;50.994;4.538;2022-10-17T08:47:40;5.43;;;4.20;;
15990;SDS011;8100;50.994;4.538;2022-10-17T08:50:34;4.07;;;3.20;;
15990;SDS011;8100;50.994;4.538;2022-10-17T08:53:28;5.75;;;4.20;;
15990;SDS011;8100;50.994;4.538;2022-10-17T08:56:19;5.10;;;3.22;;
15990;SDS011;8100;50.994;4.538;2022-10-17T08:59:09;4.60;;;2.80;;
15990;SDS011;8100;50.994;4.538;2022-10-17T09:01:59;8.82;;;3.63;;
15990;SDS011;8100;50.994;4.538;2022-10-17T09:04:53;5.85;;;2.67;;
15990;SDS011;8100;50.994;4.538;2022-10-17T09:07:53;6.22;;;3.08;;
15990;SDS011;8100;50.994;4.538;2022-10-17T09:10:54;4.53;;;2.40;;
15990;SDS011;8100;50.994;4.538;2022-10-17T09:13:47;6.35;;;3.25;;
15990;SDS011;8100;50.994;4.538;2022-10-17T09:16:45;6.93;;;3.40;;
15990;SDS011;8100;50.994;4.538;2022-10-17T09:19:42;5.43;;;3.58;;
15990;SDS011;8100;50.994;4.538;2022-10-17T09:22:36;10.27;;;4.25;;
15990;SDS011;8100;50.994;4.538;2022-10-17T09:25:31;5.45;;;3.35;;
15990;SDS011;8100;50.994;4.538;2022-10-17T09:28:26;8.35;;;5.30;;
15990;SDS011;8100;50.994;4.538;2022-10-17T09:31:17;5.88;;;3.72;;
15990;SDS011;8100;50.994;4.538;2022-10-17T09:34:08;7.07;;;3.40;;
15990;SDS011;8100;50.994;4.538;2022-10-17T09:36:56;6.82;;;3.50;;
15990;SDS011;8100;50.994;4.538;2022-10-17T09:39:45;6.07;;;4.00;;
15990;SDS011;8100;50.994;4.538;2022-10-17T09:42:34;5.57;;;3.35;;
15990;SDS011;8100;50.994;4.538;2022-10-17T09:45:22;6.70;;;3.53;;
15990;SDS011;8100;50.994;4.538;2022-10-17T09:48:14;7.18;;;3.92;;
15990;SDS011;8100;50.994;4.538;2022-10-17T09:51:07;5.60;;;3.70;;
15990;SDS011;8100;50.994;4.538;2022-10-17T09:53:56;5.43;;;2.40;;
15990;SDS011;8100;50.994;4.538;2022-10-17T09:56:58;4.35;;;2.50;;
15990;SDS011;8100;50.994;4.538;2022-10-17T09:59:58;7.22;;;3.65;;
15990;SDS011;8100;50.994;4.538;2022-10-17T10:02:47;4.40;;;3.65;;
15990;SDS011;8100;50.994;4.538;2022-10-17T10:05:35;9.77;;;3.70;;
15990;SDS011;8100;50.994;4.538;2022-10-17T10:08:22;5.60;;;3.67;;
15990;SDS011;8100;50.994;4.538;2022-10-17T10:11:13;6.32;;;3.70;;
15990;SDS011;8100;50.994;4.538;2022-10-17T10:14:09;11.30;;;3.92;;
15990;SDS011;8100;50.994;4.538;2022-10-17T10:17:00;7.95;;;3.90;;
15990;SDS011;8100;50.994;4.538;2022-10-17T10:19:49;7.57;;;4.07;;
15990;SDS011;8100;50.994;4.538;2022-10-17T10:22:37;7.22;;;3.75;;
15990;SDS011;8100;50.994;4.538;2022-10-17T10:25:24;11.25;;;3.95;;
15990;SDS011;8100;50.994;4.538;2022-10-17T10:28:13;10.48;;;4.38;;
15990;SDS011;8100;50.994;4.538;2022-10-17T10:31:04;16.80;;;4.53;;
15990;SDS011;8100;50.994;4.538;2022-10-17T10:33:54;10.63;;;4.20;;
15990;SDS011;8100;50.994;4.538;2022-10-17T10:36:43;8.73;;;4.50;;
15990;SDS011;8100;50.994;4.538;2022-10-17T10:42:31;7.15;;;4.68;;
15990;SDS011;8100;50.994;4.538;2022-10-17T10:45:21;7.20;;;4.53;;
15990;SDS011;8100;50.994;4.538;2022-10-17T10:48:16;6.20;;;4.22;;
15990;SDS011;8100;50.994;4.538;2022-10-17T10:51:10;8.52;;;4.10;;
15990;SDS011;8100;50.994;4.538;2022-10-17T10:54:01;7.72;;;4.40;;
15990;SDS011;8100;50.994;4.538;2022-10-17T10:56:55;13.05;;;4.53;;
15990;SDS011;8100;50.994;4.538;2022-10-17T10:59:47;10.18;;;4.60;;
15990;SDS011;8100;50.994;4.538;2022-10-17T11:02:42;5.18;;;3.78;;
15990;SDS011;8100;50.994;4.538;2022-10-17T11:05:40;8.10;;;4.18;;
15990;SDS011;8100;50.994;4.538;2022-10-17T11:08:34;6.80;;;4.10;;
15990;SDS011;8100;50.994;4.538;2022-10-17T11:11:27;7.60;;;4.35;;
15990;SDS011;8100;50.994;4.538;2022-10-17T11:14:18;8.00;;;4.78;;
15990;SDS011;8100;50.994;4.538;2022-10-17T11:17:22;7.75;;;4.85;;
15990;SDS011;8100;50.994;4.538;2022-10-17T11:20:17;7.63;;;4.45;;
15990;SDS011;8100;50.994;4.538;2022-10-17T11:23:11;9.90;;;5.05;;
15990;SDS011;8100;50.994;4.538;2022-10-17T11:26:07;7.28;;;4.65;;
15990;SDS011;8100;50.994;4.538;2022-10-17T11:29:02;7.45;;;4.47;;
15990;SDS011;8100;50.994;4.538;2022-10-17T11:31:51;11.05;;;4.90;;
15990;SDS011;8100;50.994;4.538;2022-10-17T11:34:43;11.55;;;5.22;;
15990;SDS011;8100;50.994;4.538;2022-10-17T11:37:34;9.40;;;4.93;;
15990;SDS011;8100;50.994;4.538;2022-10-17T11:40:26;8.05;;;4.13;;
15990;SDS011;8100;50.994;4.538;2022-10-17T11:43:19;5.95;;;4.13;;
15990;SDS011;8100;50.994;4.538;2022-10-17T11:46:11;6.00;;;3.97;;
15990;SDS011;8100;50.994;4.538;2022-10-17T11:49:03;8.43;;;4.70;;
15990;SDS011;8100;50.994;4.538;2022-10-17T11:51:59;9.10;;;4.03;;
15990;SDS011;8100;50.994;4.538;2022-10-17T11:54:54;8.77;;;4.28;;
15990;SDS011;8100;50.994;4.538;2022-10-17T11:57:48;6.63;;;4.55;;
15990;SDS011;8100;50.994;4.538;2022-10-17T12:00:45;8.27;;;4.68;;
15990;SDS011;8100;50.994;4.538;2022-10-17T12:03:41;7.10;;;4.22;;
15990;SDS011;8100;50.994;4.538;2022-10-17T12:06:40;11.32;;;4.30;;
15990;SDS011;8100;50.994;4.538;2022-10-17T12:09:37;6.97;;;4.60;;
15990;SDS011;8100;50.994;4.538;2022-10-17T12:12:31;13.50;;;4.95;;
15990;SDS011;8100;50.994;4.538;2022-10-17T12:15:28;9.38;;;4.93;;
15990;SDS011;8100;50.994;4.538;2022-10-17T12:18:17;7.93;;;5.07;;
15990;SDS011;8100;50.994;4.538;2022-10-17T12:21:04;7.82;;;4.78;;
15990;SDS011;8100;50.994;4.538;2022-10-17T12:23:52;8.82;;;4.82;;
15990;SDS011;8100;50.994;4.538;2022-10-17T12:26:40;6.00;;;4.53;;
15990;SDS011;8100;50.994;4.538;2022-10-17T12:29:28;8.10;;;4.72;;
15990;SDS011;8100;50.994;4.538;2022-10-17T12:32:15;6.88;;;4.70;;
15990;SDS011;8100;50.994;4.538;2022-10-17T12:35:12;9.88;;;4.80;;
15990;SDS011;8100;50.994;4.538;2022-10-17T12:41:14;6.35;;;4.10;;
15990;SDS011;8100;50.994;4.538;2022-10-17T12:44:01;9.77;;;4.30;;
15990;SDS011;8100;50.994;4.538;2022-10-17T12:47:34;6.55;;;3.85;;
15990;SDS011;8100;50.994;4.538;2022-10-17T12:53:52;8.00;;;4.25;;
15990;SDS011;8100;50.994;4.538;2022-10-17T12:56:44;8.60;;;4.40;;
15990;SDS011;8100;50.994;4.538;2022-10-17T12:59:33;5.97;;;4.07;;
15990;SDS011;8100;50.994;4.538;2022-10-17T13:02:20;12.93;;;4.30;;
15990;SDS011;8100;50.994;4.538;2022-10-17T13:05:12;9.35;;;4.43;;
15990;SDS011;8100;50.994;4.538;2022-10-17T13:08:04;10.98;;;4.65;;
15990;SDS011;8100;50.994;4.538;2022-10-17T13:10:54;7.45;;;4.47;;
15990;SDS011;8100;50.994;4.538;2022-10-17T13:13:43;9.52;;;4.53;;
15990;SDS011;8100;50.994;4.538;2022-10-17T13:16:35;7.38;;;4.43;;
15990;SDS011;8100;50.994;4.538;2022-10-17T13:19:25;7.63;;;4.70;;
15990;SDS011;8100;50.994;4.538;2022-10-17T13:22:17;9.63;;;4.30;;
15990;SDS011;8100;50.994;4.538;2022-10-17T13:25:11;9.13;;;4.50;;
15990;SDS011;8100;50.994;4.538;2022-10-17T13:28:05;7.53;;;4.72;;
15990;SDS011;8100;50.994;4.538;2022-10-17T13:30:57;10.70;;;4.72;;
15990;SDS011;8100;50.994;4.538;2022-10-17T13:33:44;7.80;;;4.90;;
15990;SDS011;8100;50.994;4.538;2022-10-17T13:36:32;7.30;;;4.40;;
15990;SDS011;8100;50.994;4.538;2022-10-17T13:39:21;8.48;;;4.10;;
15990;SDS011;8100;50.994;4.538;2022-10-17T13:42:16;6.57;;;4.18;;
15990;SDS011;8100;50.994;4.538;2022-10-17T13:45:10;7.18;;;4.22;;
15990;SDS011;8100;50.994;4.538;2022-10-17T13:48:03;8.27;;;3.80;;
15990;SDS011;8100;50.994;4.538;2022-10-17T13:50:55;5.05;;;3.63;;
15990;SDS011;8100;50.994;4.538;2022-10-17T13:53:43;5.82;;;3.88;;
15990;SDS011;8100;50.994;4.538;2022-10-17T13:56:31;5.55;;;3.72;;
15990;SDS011;8100;50.994;4.538;2022-10-17T13:59:21;5.18;;;3.50;;
15990;SDS011;8100;50.994;4.538;2022-10-17T14:02:12;5.75;;;3.70;;
15990;SDS011;8100;50.994;4.538;2022-10-17T14:05:02;6.95;;;3.53;;
15990;SDS011;8100;50.994;4.538;2022-10-17T14:07:56;6.13;;;3.47;;
15990;SDS011;8100;50.994;4.538;2022-10-17T14:10:45;5.72;;;3.67;;
15990;SDS011;8100;50.994;4.538;2022-10-17T14:13:33;8.15;;;3.15;;
15990;SDS011;8100;50.994;4.538;2022-10-17T14:16:23;6.50;;;3.47;;
15990;SDS011;8100;50.994;4.538;2022-10-17T14:19:16;5.63;;;3.78;;
15990;SDS011;8100;50.994;4.538;2022-10-17T14:22:13;5.82;;;3.33;;
15990;SDS011;8100;50.994;4.538;2022-10-17T14:25:03;5.90;;;3.63;;
15990;SDS011;8100;50.994;4.538;2022-10-17T14:27:52;5.30;;;3.00;;
15990;SDS011;8100;50.994;4.538;2022-10-17T14:30:43;7.00;;;3.47;;
15990;SDS011;8100;50.994;4.538;2022-10-17T14:33:34;3.85;;;2.80;;
15990;SDS011;8100;50.994;4.538;2022-10-17T14:36:35;5.85;;;2.70;;
15990;SDS011;8100;50.994;4.538;2022-10-17T14:39:26;3.55;;;2.70;;
15990;SDS011;8100;50.994;4.538;2022-10-17T14:42:16;7.38;;;2.90;;
15990;SDS011;8100;50.994;4.538;2022-10-17T14:45:06;4.57;;;2.97;;
15990;SDS011;8100;50.994;4.538;2022-10-17T14:47:59;8.20;;;2.88;;
15990;SDS011;8100;50.994;4.538;2022-10-17T14:51:07;7.95;;;2.67;;
15990;SDS011;8100;50.994;4.538;2022-10-17T14:54:00;5.97;;;2.67;;
15990;SDS011;8100;50.994;4.538;2022-10-17T14:56:50;4.28;;;2.30;;
15990;SDS011;8100;50.994;4.538;2022-10-17T14:59:40;7.28;;;2.55;;
15990;SDS011;8100;50.994;4.538;2022-10-17T15:02:28;5.03;;;3.05;;
15990;SDS011;8100;50.994;4.538;2022-10-17T15:05:15;6.80;;;3.55;;
15990;SDS011;8100;50.994;4.538;2022-10-17T15:08:07;6.18;;;2.90;;
15990;SDS011;8100;50.994;4.538;2022-10-17T15:10:59;4.35;;;2.33;;
15990;SDS011;8100;50.994;4.538;2022-10-17T15:13:46;4.00;;;2.30;;
15990;SDS011;8100;50.994;4.538;2022-10-17T15:16:33;5.75;;;2.50;;
15990;SDS011;8100;50.994;4.538;2022-10-17T15:19:23;3.72;;;2.70;;
15990;SDS011;8100;50.994;4.538;2022-10-17T15:22:10;5.28;;;2.15;;
15990;SDS011;8100;50.994;4.538;2022-10-17T15:25:00;7.07;;;2.90;;
15990;SDS011;8100;50.994;4.538;2022-10-17T15:27:47;6.85;;;2.80;;
15990;SDS011;8100;50.994;4.538;2022-10-17T15:30:35;6.82;;;2.47;;
15990;SDS011;8100;50.994;4.538;2022-10-17T15:33:22;5.38;;;3.10;;
15990;SDS011;8100;50.994;4.538;2022-10-17T15:36:19;5.15;;;2.70;;
15990;SDS011;8100;50.994;4.538;2022-10-17T15:39:09;8.30;;;2.35;;
15990;SDS011;8100;50.994;4.538;2022-10-17T15:41:57;6.68;;;2.55;;
15990;SDS011;8100;50.994;4.538;2022-10-17T15:44:45;4.30;;;2.45;;
15990;SDS011;8100;50.994;4.538;2022-10-17T15:47:34;3.83;;;2.28;;
15990;SDS011;8100;50.994;4.538;2022-10-17T15:50:22;3.83;;;2.40;;
15990;SDS011;8100;50.994;4.538;2022-10-17T15:53:10;5.18;;;2.25;;
15990;SDS011;8100;50.994;4.538;2022-10-17T15:55:57;4.65;;;2.85;;
15990;SDS011;8100;50.994;4.538;2022-10-17T15:58:46;6.57;;;2.25;;
15990;SDS011;8100;50.994;4.538;2022-10-17T16:01:34;4.90;;;2.45;;
15990;SDS011;8100;50.994;4.538;2022-10-17T16:04:21;5.35;;;2.30;;
15990;SDS011;8100;50.994;4.538;2022-10-17T16:07:11;3.53;;;2.40;;
15990;SDS011;8100;50.994;4.538;2022-10-17T16:09:58;8.88;;;2.72;;
15990;SDS011;8100;50.994;4.538;2022-10-17T16:12:45;3.83;;;2.22;;
15990;SDS011;8100;50.994;4.538;2022-10-17T16:15:35;5.38;;;2.60;;
15990;SDS011;8100;50.994;4.538;2022-10-17T16:18:22;5.07;;;2.78;;
15990;SDS011;8100;50.994;4.538;2022-10-17T16:21:10;4.40;;;3.10;;
15990;SDS011;8100;50.994;4.538;2022-10-17T16:23:59;5.30;;;2.90;;
15990;SDS011;8100;50.994;4.538;2022-10-17T16:26:46;13.98;;;5.20;;
15990;SDS011;8100;50.994;4.538;2022-10-17T16:29:33;14.40;;;6.07;;
15990;SDS011;8100;50.994;4.538;2022-10-17T16:32:22;14.80;;;7.70;;
15990;SDS011;8100;50.994;4.538;2022-10-17T16:35:10;20.05;;;9.48;;
15990;SDS011;8100;50.994;4.538;2022-10-17T16:38:01;14.27;;;7.05;;
15990;SDS011;8100;50.994;4.538;2022-10-17T16:40:49;8.02;;;5.00;;
15990;SDS011;8100;50.994;4.538;2022-10-17T16:43:36;11.77;;;5.38;;
15990;SDS011;8100;50.994;4.538;2022-10-17T16:46:23;65.68;;;27.77;;
15990;SDS011;8100;50.994;4.538;2022-10-17T16:49:14;45.53;;;20.33;;
15990;SDS011;8100;50.994;4.538;2022-10-17T16:52:02;21.67;;;10.65;;
15990;SDS011;8100;50.994;4.538;2022-10-17T16:54:50;24.60;;;12.95;;
15990;SDS011;8100;50.994;4.538;2022-10-17T16:57:37;21.77;;;10.50;;
15990;SDS011;8100;50.994;4.538;2022-10-17T17:00:24;9.25;;;5.20;;
15990;SDS011;8100;50.994;4.538;2022-10-17T17:03:12;20.40;;;9.52;;
15990;SDS011;8100;50.994;4.538;2022-10-17T17:06:00;15.88;;;8.93;;
15990;SDS011;8100;50.994;4.538;2022-10-17T17:08:47;29.90;;;17.50;;
15990;SDS011;8100;50.994;4.538;2022-10-17T17:11:34;18.95;;;11.20;;
15990;SDS011;8100;50.994;4.538;2022-10-17T17:14:22;20.88;;;11.77;;
15990;SDS011;8100;50.994;4.538;2022-10-17T17:17:10;16.20;;;9.43;;
15990;SDS011;8100;50.994;4.538;2022-10-17T17:19:57;8.98;;;4.65;;
15990;SDS011;8100;50.994;4.538;2022-10-17T17:22:46;5.30;;;3.92;;
15990;SDS011;8100;50.994;4.538;2022-10-17T17:25:35;7.75;;;2.90;;
15990;SDS011;8100;50.994;4.538;2022-10-17T17:28:23;4.50;;;3.22;;
15990;SDS011;8100;50.994;4.538;2022-10-17T17:31:12;9.30;;;3.88;;